Time;durP1;ratioP1;P1;durP2;ratioP2;P2;SDS_P1;SDS_P2;PMS_P1;PMS_P2;Temp;Humidity;BMP_temperature;BMP_pressure;BME280_temperature;BME280_humidity;BME280_pressure;Samples;Min_cycle;Max_cycle;Signal;HPM_P1;HPM_P2
2022/08/23 00:01:25;;;;;;;5.38;3.50;;;;;;;;;;4987000;28;20048;-60
2022/08/23 00:03:53;;;;;;;5.80;3.40;;;;;;;;;;4992589;28;20042;-60
2022/08/23 00:06:19;;;;;;;6.88;3.72;;;;;;;;;;4992424;28;20062;-60
2022/08/23 00:08:44;;;;;;;5.60;3.80;;;;;;;;;;4993914;28;20117;-60
2022/08/23 00:11:32;;;;;;;6.53;3.58;;;;;;;;;;4985446;28;20379;-60
2022/08/23 00:14:01;;;;;;;9.25;3.70;;;;;;;;;;4992902;28;20054;-60
2022/08/23 00:16:27;;;;;;;6.22;3.65;;;;;;;;;;4989842;28;20034;-59
2022/08/23 00:18:53;;;;;;;7.57;3.78;;;;;;;;;;4991810;28;20038;-59
2022/08/23 00:21:19;;;;;;;5.35;3.40;;;;;;;;;;4989446;28;20034;-59
2022/08/23 00:23:44;;;;;;;6.22;3.80;;;;;;;;;;4991382;28;20041;-59
2022/08/23 00:26:10;;;;;;;6.05;3.85;;;;;;;;;;4988919;28;20109;-60
2022/08/23 00:28:35;;;;;;;5.30;3.38;;;;;;;;;;4992900;28;20034;-60
2022/08/23 00:31:01;;;;;;;6.90;3.63;;;;;;;;;;4992259;28;20045;-59
2022/08/23 00:33:27;;;;;;;7.07;3.75;;;;;;;;;;4992160;28;20125;-59
2022/08/23 00:35:52;;;;;;;5.75;3.60;;;;;;;;;;4992355;28;20489;-59
2022/08/23 00:38:18;;;;;;;6.63;3.58;;;;;;;;;;4990642;28;20031;-59
2022/08/23 00:40:47;;;;;;;6.15;3.55;;;;;;;;;;4989154;28;20125;-59
2022/08/23 00:48:51;;;;;;;6.57;3.63;;;;;;;;;;4979552;28;20164;-60
2022/08/23 00:51:34;;;;;;;5.35;3.50;;;;;;;;;;4990135;28;20030;-61
2022/08/23 00:54:00;;;;;;;6.10;3.70;;;;;;;;;;4991101;28;20045;-60
2022/08/23 00:56:30;;;;;;;8.73;3.65;;;;;;;;;;4988729;28;20154;-60
2022/08/23 00:58:55;;;;;;;5.35;3.70;;;;;;;;;;4991924;28;20149;-60
2022/08/23 01:01:21;;;;;;;5.50;3.50;;;;;;;;;;4988529;28;20121;-60
2022/08/23 01:03:51;;;;;;;6.50;3.63;;;;;;;;;;4990170;28;20034;-61
2022/08/23 01:06:29;;;;;;;6.35;3.70;;;;;;;;;;4982206;28;20379;-60
2022/08/23 01:09:00;;;;;;;5.78;3.65;;;;;;;;;;4990644;28;20121;-61
2022/08/23 01:11:32;;;;;;;7.28;3.97;;;;;;;;;;4992019;28;20057;-61
2022/08/23 01:14:04;;;;;;;8.05;4.53;;;;;;;;;;4991773;28;20117;-61
2022/08/23 01:16:36;;;;;;;6.88;3.83;;;;;;;;;;4990807;28;20045;-61
2022/08/23 01:19:06;;;;;;;7.10;4.15;;;;;;;;;;4990471;28;20447;-60
2022/08/23 01:21:43;;;;;;;4.97;3.80;;;;;;;;;;4991839;28;20026;-60
2022/08/23 01:24:10;;;;;;;9.45;4.10;;;;;;;;;;4989684;28;20023;-60
2022/08/23 01:26:36;;;;;;;9.75;5.35;;;;;;;;;;4991222;28;20030;-60
2022/08/23 01:29:06;;;;;;;6.63;4.00;;;;;;;;;;4990133;28;20034;-60
2022/08/23 01:31:32;;;;;;;6.55;4.10;;;;;;;;;;4991549;28;20046;-60
2022/08/23 01:34:02;;;;;;;8.13;4.25;;;;;;;;;;4991770;28;20085;-60
2022/08/23 01:36:28;;;;;;;6.88;3.80;;;;;;;;;;4990606;28;20034;-60
2022/08/23 01:38:54;;;;;;;6.25;4.07;;;;;;;;;;4992294;28;20045;-60
2022/08/23 01:41:19;;;;;;;7.57;4.00;;;;;;;;;;4988742;28;20026;-59
2022/08/23 01:43:45;;;;;;;6.25;3.97;;;;;;;;;;5006964;28;20058;-59
2022/08/23 01:46:14;;;;;;;7.35;3.97;;;;;;;;;;4988570;28;20022;-63
2022/08/23 01:48:40;;;;;;;5.57;4.05;;;;;;;;;;4990330;28;20026;-60
2022/08/23 01:51:06;;;;;;;7.07;4.47;;;;;;;;;;4990379;28;20096;-60
2022/08/23 01:53:32;;;;;;;7.20;4.68;;;;;;;;;;4987585;28;20040;-60
2022/08/23 01:56:00;;;;;;;6.00;4.40;;;;;;;;;;4989673;28;20113;-60
2022/08/23 01:58:26;;;;;;;7.72;4.55;;;;;;;;;;4989350;28;20452;-60
2022/08/23 02:00:52;;;;;;;8.07;4.40;;;;;;;;;;4989457;28;20140;-60
2022/08/23 02:03:18;;;;;;;8.93;4.75;;;;;;;;;;4982193;28;20133;-60
2022/08/23 02:05:44;;;;;;;8.45;4.93;;;;;;;;;;4989683;28;20101;-61
2022/08/23 02:10:54;;;;;;;8.20;4.47;;;;;;;;;;4990836;28;20040;-60
2022/08/23 02:13:20;;;;;;;8.95;4.88;;;;;;;;;;4985724;28;20126;-61
2022/08/23 02:15:50;;;;;;;6.90;4.60;;;;;;;;;;4987878;28;20471;-62
2022/08/23 02:18:17;;;;;;;7.25;4.60;;;;;;;;;;4974123;28;20125;-61
2022/08/23 02:20:44;;;;;;;6.72;4.63;;;;;;;;;;4990714;28;20080;-61
2022/08/23 02:23:10;;;;;;;6.78;4.60;;;;;;;;;;4988926;28;20438;-62
2022/08/23 02:25:36;;;;;;;7.88;4.38;;;;;;;;;;4989739;28;20033;-60
2022/08/23 02:28:03;;;;;;;8.40;4.43;;;;;;;;;;4989169;28;20038;-61
2022/08/23 02:30:28;;;;;;;7.82;4.45;;;;;;;;;;4990344;28;20041;-61
2022/08/23 02:32:55;;;;;;;8.10;4.57;;;;;;;;;;4989043;28;20042;-60
2022/08/23 02:35:21;;;;;;;7.82;4.55;;;;;;;;;;4989131;28;20034;-60
2022/08/23 02:37:46;;;;;;;8.38;4.95;;;;;;;;;;4989801;28;20113;-60
2022/08/23 02:40:12;;;;;;;9.15;4.70;;;;;;;;;;4991928;28;20162;-62
2022/08/23 02:42:37;;;;;;;6.50;4.28;;;;;;;;;;4993486;28;20057;-60
2022/08/23 02:45:03;;;;;;;7.57;4.85;;;;;;;;;;4994391;28;20391;-60
2022/08/23 02:47:29;;;;;;;7.75;4.82;;;;;;;;;;4990615;28;21297;-61
2022/08/23 02:49:54;;;;;;;10.27;4.80;;;;;;;;;;4992173;28;20467;-60
2022/08/23 02:52:19;;;;;;;6.97;4.68;;;;;;;;;;4992800;28;20038;-60
2022/08/23 02:54:45;;;;;;;10.82;4.72;;;;;;;;;;4994667;28;20035;-60
2022/08/23 02:57:10;;;;;;;7.60;4.93;;;;;;;;;;4993047;28;20087;-60
2022/08/23 02:59:36;;;;;;;7.35;4.70;;;;;;;;;;4993401;28;20441;-61
2022/08/23 03:02:01;;;;;;;8.43;5.30;;;;;;;;;;4993411;28;20462;-60
2022/08/23 03:04:27;;;;;;;5.35;4.78;;;;;;;;;;4984171;28;20399;-60
2022/08/23 03:06:52;;;;;;;8.38;4.85;;;;;;;;;;4994371;28;20061;-60
2022/08/23 03:09:18;;;;;;;9.00;5.32;;;;;;;;;;4976193;28;20125;-61
2022/08/23 03:11:45;;;;;;;7.07;5.15;;;;;;;;;;4991535;28;20117;-61
2022/08/23 03:14:11;;;;;;;7.75;5.35;;;;;;;;;;4991347;28;20096;-62
2022/08/23 03:16:36;;;;;;;6.38;5.25;;;;;;;;;;4991488;28;20470;-60
2022/08/23 03:19:03;;;;;;;8.82;5.20;;;;;;;;;;4993688;28;20042;-59
2022/08/23 03:21:28;;;;;;;9.00;5.50;;;;;;;;;;4992564;28;20048;-61
2022/08/23 03:23:54;;;;;;;7.30;4.93;;;;;;;;;;4990698;28;20518;-60
2022/08/23 03:26:20;;;;;;;8.07;5.60;;;;;;;;;;4992625;28;20117;-63
2022/08/23 03:28:45;;;;;;;9.18;5.28;;;;;;;;;;4993350;28;20034;-61
2022/08/23 03:31:14;;;;;;;12.07;5.50;;;;;;;;;;4993441;28;20034;-61
2022/08/23 03:33:40;;;;;;;7.45;5.28;;;;;;;;;;4989361;28;20061;-60
2022/08/23 03:36:09;;;;;;;6.53;5.00;;;;;;;;;;4993467;28;20469;-60
2022/08/23 03:38:35;;;;;;;7.70;5.30;;;;;;;;;;4991994;28;20121;-60
2022/08/23 03:41:01;;;;;;;9.60;5.63;;;;;;;;;;4991595;28;20030;-60
2022/08/23 03:43:27;;;;;;;9.70;5.60;;;;;;;;;;4990211;28;20402;-60
2022/08/23 03:45:52;;;;;;;7.65;5.47;;;;;;;;;;4992631;28;20030;-59
2022/08/23 03:48:18;;;;;;;10.15;5.70;;;;;;;;;;4991051;28;20057;-62
2022/08/23 03:50:44;;;;;;;7.57;5.50;;;;;;;;;;4992608;28;20026;-61
2022/08/23 03:53:09;;;;;;;8.05;5.55;;;;;;;;;;4990607;28;20046;-61
2022/08/23 03:55:35;;;;;;;9.25;5.25;;;;;;;;;;4991080;28;20038;-60
2022/08/23 03:58:00;;;;;;;9.60;5.95;;;;;;;;;;4992054;28;20047;-60
2022/08/23 04:00:26;;;;;;;8.32;5.25;;;;;;;;;;4993190;28;20495;-60
2022/08/23 04:02:51;;;;;;;8.57;5.53;;;;;;;;;;4989636;28;20042;-61
2022/08/23 04:05:17;;;;;;;8.75;5.80;;;;;;;;;;4986780;28;20082;-63
2022/08/23 04:07:42;;;;;;;8.18;5.50;;;;;;;;;;4987964;28;20034;-60
2022/08/23 04:10:08;;;;;;;7.47;5.43;;;;;;;;;;4993616;28;20049;-60
2022/08/23 04:12:35;;;;;;;8.00;5.35;;;;;;;;;;4991122;28;20033;-60
2022/08/23 04:15:00;;;;;;;7.57;5.93;;;;;;;;;;4990735;28;20394;-61
2022/08/23 04:17:27;;;;;;;11.55;6.05;;;;;;;;;;4989542;28;20027;-61
2022/08/23 04:19:53;;;;;;;10.93;7.30;;;;;;;;;;4991057;28;20090;-62
2022/08/23 04:22:19;;;;;;;10.88;7.40;;;;;;;;;;4992572;28;20034;-62
2022/08/23 04:24:45;;;;;;;8.02;5.72;;;;;;;;;;4989945;28;20041;-60
2022/08/23 04:27:11;;;;;;;9.60;5.63;;;;;;;;;;4993442;28;20034;-62
2022/08/23 04:29:38;;;;;;;7.80;5.28;;;;;;;;;;4989401;28;20030;-60
2022/08/23 04:32:06;;;;;;;7.82;5.13;;;;;;;;;;4993564;28;20035;-60
2022/08/23 04:34:33;;;;;;;8.73;5.65;;;;;;;;;;4989118;28;20069;-60
2022/08/23 04:36:59;;;;;;;8.63;5.63;;;;;;;;;;4992605;28;20113;-61
2022/08/23 04:39:25;;;;;;;7.10;5.55;;;;;;;;;;4989671;28;20395;-60
2022/08/23 04:44:51;;;;;;;7.35;5.97;;;;;;;;;;4969120;28;20451;-61
2022/08/23 04:47:17;;;;;;;10.02;5.88;;;;;;;;;;4986429;28;20044;-62
2022/08/23 04:49:42;;;;;;;10.80;6.30;;;;;;;;;;4989766;28;22022;-61
2022/08/23 04:52:08;;;;;;;10.38;6.53;;;;;;;;;;4991413;28;20045;-61
2022/08/23 04:54:33;;;;;;;10.68;6.47;;;;;;;;;;4989030;28;20285;-61
2022/08/23 04:56:59;;;;;;;10.55;6.07;;;;;;;;;;4992433;28;20080;-60
2022/08/23 04:59:24;;;;;;;9.60;6.40;;;;;;;;;;4989503;28;20057;-62
2022/08/23 05:01:50;;;;;;;13.68;6.80;;;;;;;;;;4990559;28;20442;-60
2022/08/23 05:04:16;;;;;;;8.98;6.25;;;;;;;;;;4980895;28;20069;-60
2022/08/23 05:06:41;;;;;;;10.23;6.65;;;;;;;;;;4991257;28;20263;-60
2022/08/23 05:09:07;;;;;;;7.90;6.18;;;;;;;;;;4991078;28;20518;-61
2022/08/23 05:11:32;;;;;;;8.40;6.55;;;;;;;;;;4993126;28;20435;-60
2022/08/23 05:13:58;;;;;;;9.27;6.30;;;;;;;;;;4990237;28;20033;-60
2022/08/23 05:16:24;;;;;;;10.75;6.22;;;;;;;;;;4992203;28;20459;-62
2022/08/23 05:18:49;;;;;;;9.38;6.45;;;;;;;;;;4990993;28;20038;-60
2022/08/23 05:21:19;;;;;;;9.13;6.10;;;;;;;;;;4992576;28;20018;-60
2022/08/23 05:23:45;;;;;;;8.98;5.88;;;;;;;;;;4990076;28;20034;-60
2022/08/23 05:26:11;;;;;;;8.00;5.65;;;;;;;;;;4991237;28;20394;-61
2022/08/23 05:28:41;;;;;;;8.20;6.05;;;;;;;;;;4990592;28;20034;-59
2022/08/23 05:31:21;;;;;;;8.77;5.78;;;;;;;;;;4977552;28;20027;-59
2022/08/23 05:33:48;;;;;;;10.15;5.38;;;;;;;;;;4990115;28;20045;-59
2022/08/23 05:36:16;;;;;;;8.40;5.45;;;;;;;;;;4991148;28;20038;-60
2022/08/23 05:38:42;;;;;;;11.50;5.82;;;;;;;;;;4987666;28;20057;-61
2022/08/23 05:41:09;;;;;;;9.85;5.88;;;;;;;;;;4991089;28;20037;-61
2022/08/23 05:43:35;;;;;;;9.00;5.22;;;;;;;;;;4989471;28;20093;-61
2022/08/23 05:46:03;;;;;;;11.02;5.32;;;;;;;;;;4989892;28;20038;-61
2022/08/23 05:48:30;;;;;;;10.88;5.47;;;;;;;;;;4991147;28;20033;-62
2022/08/23 05:50:56;;;;;;;8.48;5.30;;;;;;;;;;4991362;28;20117;-62
2022/08/23 05:53:21;;;;;;;9.50;5.25;;;;;;;;;;4989838;28;20105;-64
2022/08/23 05:55:47;;;;;;;19.30;5.20;;;;;;;;;;4989601;28;20030;-61
2022/08/23 05:58:12;;;;;;;13.63;5.18;;;;;;;;;;4985828;28;20454;-61
2022/08/23 06:00:37;;;;;;;12.02;5.18;;;;;;;;;;4985864;28;20104;-61
2022/08/23 06:03:03;;;;;;;11.57;5.15;;;;;;;;;;4990742;28;20045;-61
2022/08/23 06:05:28;;;;;;;11.10;4.85;;;;;;;;;;4991513;28;20129;-61
2022/08/23 06:07:54;;;;;;;9.32;4.97;;;;;;;;;;4992899;28;20049;-62
2022/08/23 06:10:20;;;;;;;10.25;4.88;;;;;;;;;;4988998;28;20440;-62
2022/08/23 06:12:46;;;;;;;12.13;4.60;;;;;;;;;;4989904;28;20030;-62
2022/08/23 06:15:12;;;;;;;7.32;4.72;;;;;;;;;;4992095;28;20045;-61
2022/08/23 06:17:37;;;;;;;11.57;4.95;;;;;;;;;;4994782;28;20034;-62
2022/08/23 06:20:05;;;;;;;12.70;4.88;;;;;;;;;;4990206;28;20038;-64
2022/08/23 06:22:30;;;;;;;8.48;4.45;;;;;;;;;;4988268;28;20034;-61
2022/08/23 06:24:55;;;;;;;9.85;4.70;;;;;;;;;;4989872;28;20379;-62
2022/08/23 06:27:21;;;;;;;10.50;5.00;;;;;;;;;;4992861;28;20160;-61
2022/08/23 06:29:48;;;;;;;9.68;4.57;;;;;;;;;;4994702;28;20639;-60
2022/08/23 06:32:13;;;;;;;6.47;4.43;;;;;;;;;;4994549;28;20447;-60
2022/08/23 06:34:39;;;;;;;9.15;4.40;;;;;;;;;;4993856;28;20061;-61
2022/08/23 06:37:14;;;;;;;11.80;4.63;;;;;;;;;;4993073;28;20034;-61
2022/08/23 06:39:40;;;;;;;9.05;4.10;;;;;;;;;;4991037;28;20478;-64
2022/08/23 06:42:11;;;;;;;7.35;3.92;;;;;;;;;;4990644;28;20062;-60
2022/08/23 06:44:37;;;;;;;6.95;4.00;;;;;;;;;;4985054;28;20650;-61
2022/08/23 06:47:04;;;;;;;8.75;4.00;;;;;;;;;;4985512;28;20035;-62
2022/08/23 06:49:30;;;;;;;8.68;4.20;;;;;;;;;;4991379;28;20038;-62
2022/08/23 06:52:03;;;;;;;7.97;4.10;;;;;;;;;;4992924;28;20029;-60
2022/08/23 06:54:31;;;;;;;7.32;3.80;;;;;;;;;;4988535;28;20042;-64
2022/08/23 06:56:58;;;;;;;7.50;3.92;;;;;;;;;;4986752;28;20061;-62
2022/08/23 06:59:24;;;;;;;6.05;3.70;;;;;;;;;;4991206;28;20477;-62
2022/08/23 07:02:05;;;;;;;6.57;3.70;;;;;;;;;;4993205;28;20499;-61
2022/08/23 07:04:32;;;;;;;;;;;;;;;;;;4986461;28;20030;-61
2022/08/23 07:07:00;;;;;;;6.88;3.55;;;;;;;;;;4992961;28;19949;-62
2022/08/23 07:09:26;;;;;;;8.23;3.97;;;;;;;;;;4994725;28;20041;-62
2022/08/23 07:11:52;;;;;;;10.32;3.78;;;;;;;;;;4993168;28;20034;-61
2022/08/23 07:14:19;;;;;;;9.43;3.55;;;;;;;;;;4991778;28;20034;-61
2022/08/23 07:16:50;;;;;;;7.82;3.33;;;;;;;;;;4993525;28;20077;-63
2022/08/23 07:19:19;;;;;;;8.35;3.50;;;;;;;;;;4984008;28;20030;-61
2022/08/23 07:21:45;;;;;;;9.43;3.65;;;;;;;;;;4988658;28;20034;-64
2022/08/23 07:24:12;;;;;;;8.85;3.55;;;;;;;;;;4992900;28;20169;-61
2022/08/23 07:26:38;;;;;;;11.38;3.40;;;;;;;;;;4992428;28;20038;-61
2022/08/23 07:29:05;;;;;;;8.73;3.53;;;;;;;;;;4991876;28;20391;-60
2022/08/23 07:31:32;;;;;;;10.38;3.60;;;;;;;;;;4992654;28;20152;-63
2022/08/23 07:34:00;;;;;;;11.38;3.72;;;;;;;;;;4992954;28;20038;-61
2022/08/23 07:36:27;;;;;;;6.00;3.40;;;;;;;;;;4993382;28;20034;-62
2022/08/23 07:38:53;;;;;;;10.07;3.30;;;;;;;;;;4974493;28;20508;-62
2022/08/23 07:41:19;;;;;;;6.13;3.50;;;;;;;;;;4991586;28;20069;-61
2022/08/23 07:43:45;;;;;;;7.40;3.30;;;;;;;;;;4992953;28;20042;-61
2022/08/23 07:46:11;;;;;;;7.70;3.60;;;;;;;;;;4993883;28;20422;-61
2022/08/23 07:48:38;;;;;;;5.70;3.10;;;;;;;;;;4991739;28;20170;-61
2022/08/23 07:51:07;;;;;;;8.85;3.30;;;;;;;;;;4987932;28;20034;-61
2022/08/23 07:53:32;;;;;;;9.23;3.40;;;;;;;;;;4991413;28;20039;-64
2022/08/23 07:55:58;;;;;;;5.63;3.35;;;;;;;;;;4992109;28;20039;-61
2022/08/23 07:58:25;;;;;;;7.78;3.30;;;;;;;;;;4989908;28;20117;-61
2022/08/23 08:00:52;;;;;;;8.63;3.58;;;;;;;;;;4992217;28;20455;-61
2022/08/23 08:03:18;;;;;;;6.20;3.30;;;;;;;;;;4991839;28;20034;-61
2022/08/23 08:05:44;;;;;;;7.47;3.42;;;;;;;;;;4990013;28;20030;-61
2022/08/23 08:08:10;;;;;;;5.05;3.15;;;;;;;;;;4974665;28;20031;-61
2022/08/23 08:10:38;;;;;;;5.88;3.38;;;;;;;;;;4989549;28;20038;-60
2022/08/23 08:13:04;;;;;;;7.18;3.13;;;;;;;;;;4992288;28;20038;-61
2022/08/23 08:15:29;;;;;;;12.65;3.33;;;;;;;;;;4993005;28;20154;-61
2022/08/23 08:17:55;;;;;;;8.85;3.40;;;;;;;;;;4991083;28;20491;-61
2022/08/23 08:20:21;;;;;;;7.20;3.38;;;;;;;;;;4993758;28;20030;-61
2022/08/23 08:22:47;;;;;;;9.93;3.50;;;;;;;;;;4991419;28;20046;-61
2022/08/23 08:25:13;;;;;;;7.82;3.75;;;;;;;;;;4992378;28;20045;-61
2022/08/23 08:27:40;;;;;;;9.55;3.92;;;;;;;;;;4992818;28;20030;-61
2022/08/23 08:30:07;;;;;;;9.77;3.97;;;;;;;;;;4991295;28;20034;-61
2022/08/23 08:32:34;;;;;;;6.72;3.67;;;;;;;;;;4993214;28;20041;-64
2022/08/23 08:34:59;;;;;;;6.55;3.72;;;;;;;;;;4991869;28;20082;-61
2022/08/23 08:37:25;;;;;;;9.45;3.80;;;;;;;;;;4992246;28;20501;-61
2022/08/23 08:39:51;;;;;;;10.63;3.83;;;;;;;;;;4992590;28;20038;-60
2022/08/23 08:42:28;;;;;;;6.75;3.70;;;;;;;;;;4990837;28;20066;-61
2022/08/23 08:44:57;;;;;;;9.98;4.00;;;;;;;;;;4991003;28;20747;-61
2022/08/23 08:47:50;;;;;;;10.57;3.60;;;;;;;;;;4986483;28;20042;-61
2022/08/23 08:50:25;;;;;;;9.60;3.47;;;;;;;;;;4990674;28;20117;-61
2022/08/23 08:52:56;;;;;;;6.70;3.50;;;;;;;;;;4991229;28;20045;-61
2022/08/23 08:55:26;;;;;;;9.20;3.70;;;;;;;;;;4992193;28;20062;-61
2022/08/23 08:57:53;;;;;;;9.07;3.72;;;;;;;;;;4991321;28;20046;-61
2022/08/23 09:00:33;;;;;;;8.13;3.35;;;;;;;;;;4993006;28;20034;-61
2022/08/23 09:03:01;;;;;;;5.55;3.53;;;;;;;;;;4991207;28;20081;-61
2022/08/23 09:05:33;;;;;;;7.40;3.70;;;;;;;;;;4990011;28;20045;-61
2022/08/23 09:08:16;;;;;;;9.75;3.40;;;;;;;;;;4984438;28;20084;-61
2022/08/23 09:11:21;;;;;;;7.18;3.50;;;;;;;;;;4992018;28;20034;-60
2022/08/23 09:14:23;;;;;;;8.52;3.45;;;;;;;;;;4989751;28;20364;-61
2022/08/23 09:16:58;;;;;;;12.85;3.63;;;;;;;;;;4990495;28;20165;-61
2022/08/23 09:19:24;;;;;;;11.40;3.63;;;;;;;;;;4991639;28;20454;-61
2022/08/23 09:22:12;;;;;;;5.93;3.38;;;;;;;;;;4990803;28;20161;-60
2022/08/23 09:24:38;;;;;;;8.15;3.30;;;;;;;;;;4990141;28;20049;-65
2022/08/23 09:27:04;;;;;;;10.82;3.75;;;;;;;;;;4992690;28;20057;-61
2022/08/23 09:29:32;;;;;;;7.63;3.70;;;;;;;;;;4989834;28;20139;-61
2022/08/23 09:32:04;;;;;;;8.88;3.50;;;;;;;;;;4991125;28;20057;-61
2022/08/23 09:34:35;;;;;;;9.05;3.60;;;;;;;;;;4992378;28;20049;-61
2022/08/23 09:37:08;;;;;;;5.40;3.25;;;;;;;;;;4988430;28;20478;-63
2022/08/23 09:39:36;;;;;;;9.27;3.60;;;;;;;;;;4992611;28;20042;-61
2022/08/23 09:42:02;;;;;;;7.22;3.55;;;;;;;;;;4990558;28;20106;-62
2022/08/23 09:44:33;;;;;;;8.75;3.67;;;;;;;;;;4991114;28;20037;-62
2022/08/23 09:47:12;;;;;;;9.77;3.80;;;;;;;;;;4987727;28;20037;-64
2022/08/23 09:49:40;;;;;;;8.10;3.30;;;;;;;;;;4989632;28;20116;-66
2022/08/23 09:52:32;;;;;;;7.32;3.35;;;;;;;;;;4991261;28;20037;-63
2022/08/23 09:55:05;;;;;;;8.05;3.50;;;;;;;;;;4989655;28;20278;-62
2022/08/23 09:57:32;;;;;;;14.15;3.58;;;;;;;;;;4989618;28;20042;-62
2022/08/23 10:00:22;;;;;;;8.98;3.58;;;;;;;;;;4990740;28;20495;-61
2022/08/23 10:02:49;;;;;;;9.07;3.63;;;;;;;;;;4988208;28;20065;-62
2022/08/23 10:05:14;;;;;;;6.97;3.33;;;;;;;;;;4991688;28;20104;-62
2022/08/23 10:07:42;;;;;;;6.47;3.30;;;;;;;;;;4989681;28;20468;-64
2022/08/23 10:10:45;;;;;;;7.38;3.50;;;;;;;;;;4980066;28;20047;-61
2022/08/23 10:13:12;;;;;;;9.88;3.60;;;;;;;;;;4988947;28;20550;-61
2022/08/23 10:15:58;;;;;;;7.18;3.45;;;;;;;;;;4991307;28;20034;-64
2022/08/23 10:18:44;;;;;;;6.63;3.60;;;;;;;;;;4991320;28;20046;-61
2022/08/23 10:21:30;;;;;;;7.00;3.50;;;;;;;;;;4990995;28;20037;-61
2022/08/23 10:24:22;;;;;;;6.50;3.47;;;;;;;;;;4974334;28;20043;-61
2022/08/23 10:30:21;;;;;;;7.00;3.30;;;;;;;;;;4990584;28;20087;-61
2022/08/23 10:33:16;;;;;;;8.65;3.78;;;;;;;;;;4988475;28;20073;-61
2022/08/23 10:35:55;;;;;;;5.28;3.45;;;;;;;;;;4990400;28;20038;-64
2022/08/23 10:38:42;;;;;;;7.72;3.80;;;;;;;;;;4992370;28;20034;-61
2022/08/23 10:41:40;;;;;;;6.63;3.60;;;;;;;;;;4989921;28;20972;-60
2022/08/23 10:44:22;;;;;;;6.60;3.58;;;;;;;;;;4980717;28;20052;-61
2022/08/23 10:47:10;;;;;;;7.88;3.50;;;;;;;;;;4985714;28;20054;-61
2022/08/23 10:49:38;;;;;;;9.27;3.80;;;;;;;;;;4989678;28;20038;-61
2022/08/23 10:52:08;;;;;;;6.75;3.60;;;;;;;;;;4988613;28;20173;-61
2022/08/23 10:54:45;;;;;;;5.95;3.40;;;;;;;;;;4992079;28;20034;-60
2022/08/23 10:57:15;;;;;;;6.63;3.78;;;;;;;;;;4989953;28;20070;-61
2022/08/23 10:59:42;;;;;;;8.30;3.72;;;;;;;;;;4990161;28;20045;-64
2022/08/23 11:02:20;;;;;;;7.30;3.80;;;;;;;;;;4988886;28;20030;-61
2022/08/23 11:05:05;;;;;;;11.15;3.80;;;;;;;;;;4993201;28;20037;-61
2022/08/23 11:07:41;;;;;;;7.90;3.90;;;;;;;;;;4982215;28;20444;-61
2022/08/23 11:10:23;;;;;;;11.07;3.70;;;;;;;;;;4993821;28;20113;-61
2022/08/23 11:12:58;;;;;;;5.53;3.50;;;;;;;;;;4992322;28;20038;-62
2022/08/23 11:15:45;;;;;;;9.45;4.05;;;;;;;;;;4995628;28;20386;-61
2022/08/23 11:18:49;;;;;;;10.40;4.00;;;;;;;;;;4976820;28;20038;-61
2022/08/23 11:21:17;;;;;;;11.55;3.78;;;;;;;;;;4991391;28;20042;-61
2022/08/23 11:23:58;;;;;;;8.15;3.75;;;;;;;;;;4993316;28;20041;-64
2022/08/23 11:26:30;;;;;;;6.82;3.67;;;;;;;;;;4994482;28;20034;-62
2022/08/23 11:29:09;;;;;;;7.32;3.72;;;;;;;;;;4992153;28;20033;-62
2022/08/23 11:31:36;;;;;;;7.90;3.60;;;;;;;;;;4992727;28;20081;-62
2022/08/23 11:34:10;;;;;;;9.10;3.42;;;;;;;;;;4991155;28;20410;-62
2022/08/23 11:36:36;;;;;;;7.68;3.50;;;;;;;;;;4993202;28;20039;-62
2022/08/23 11:39:13;;;;;;;11.32;3.40;;;;;;;;;;4992726;28;20034;-61
2022/08/23 11:41:54;;;;;;;8.27;3.33;;;;;;;;;;4992020;28;20034;-61
2022/08/23 11:44:38;;;;;;;7.15;3.70;;;;;;;;;;4992817;28;20491;-62
2022/08/23 11:47:06;;;;;;;7.25;3.38;;;;;;;;;;4992973;28;20046;-61
2022/08/23 11:49:49;;;;;;;9.15;3.20;;;;;;;;;;4994301;28;20045;-61
2022/08/23 11:52:50;;;;;;;6.90;3.00;;;;;;;;;;4993043;28;20084;-61
2022/08/23 11:55:24;;;;;;;6.53;3.10;;;;;;;;;;4933808;29;20156;-61
2022/08/23 11:58:22;;;;;;;6.40;2.90;;;;;;;;;;4978444;28;20052;-61
2022/08/23 12:00:52;;;;;;;5.55;2.90;;;;;;;;;;4979092;28;20047;-63
2022/08/23 12:03:23;;;;;;;5.30;3.15;;;;;;;;;;4993659;28;20088;-61
2022/08/23 12:05:49;;;;;;;5.38;3.00;;;;;;;;;;4990864;28;20042;-61
2022/08/23 12:09:00;;;;;;;7.25;3.20;;;;;;;;;;4993810;28;20528;-61
2022/08/23 12:11:52;;;;;;;5.57;2.90;;;;;;;;;;4962834;28;20475;-61
2022/08/23 12:14:29;;;;;;;7.03;2.78;;;;;;;;;;4989216;28;20113;-60
2022/08/23 12:16:59;;;;;;;5.88;2.88;;;;;;;;;;4992489;28;20149;-64
2022/08/23 12:19:40;;;;;;;7.93;3.17;;;;;;;;;;4983852;28;20038;-61
2022/08/23 12:22:14;;;;;;;6.45;3.05;;;;;;;;;;4990550;28;20038;-61
2022/08/23 12:24:47;;;;;;;6.32;2.90;;;;;;;;;;4992838;28;20034;-60
2022/08/23 12:27:25;;;;;;;7.07;3.08;;;;;;;;;;4992935;28;20490;-60
2022/08/23 12:29:59;;;;;;;9.45;3.15;;;;;;;;;;4989417;28;20475;-61
2022/08/23 12:32:44;;;;;;;4.88;2.72;;;;;;;;;;4992048;28;20050;-60
2022/08/23 12:35:29;;;;;;;6.13;2.85;;;;;;;;;;4991835;28;20053;-60
2022/08/23 12:37:54;;;;;;;5.38;2.60;;;;;;;;;;4980087;28;20035;-60
2022/08/23 12:40:35;;;;;;;7.25;2.80;;;;;;;;;;4979246;28;20157;-60
2022/08/23 12:43:23;;;;;;;6.53;2.97;;;;;;;;;;4990727;28;20038;-60
2022/08/23 12:45:57;;;;;;;6.28;2.97;;;;;;;;;;4991710;28;20066;-62
2022/08/23 12:48:29;;;;;;;6.65;2.78;;;;;;;;;;4993744;28;20494;-60
2022/08/23 12:51:06;;;;;;;5.50;2.70;;;;;;;;;;4989503;28;20433;-61
2022/08/23 12:53:39;;;;;;;7.25;3.00;;;;;;;;;;4985788;28;20165;-60
2022/08/23 12:56:19;;;;;;;8.00;2.70;;;;;;;;;;4989249;28;20042;-60
2022/08/23 12:58:50;;;;;;;8.20;2.60;;;;;;;;;;4992177;28;20057;-61
2022/08/23 13:01:24;;;;;;;5.22;2.70;;;;;;;;;;4990754;28;20058;-60
2022/08/23 13:04:02;;;;;;;4.72;3.00;;;;;;;;;;4990049;28;20041;-63
2022/08/23 13:06:33;;;;;;;7.53;2.90;;;;;;;;;;4993162;28;20031;-60
2022/08/23 13:09:06;;;;;;;5.28;2.55;;;;;;;;;;4991630;28;20038;-60
2022/08/23 13:11:35;;;;;;;5.45;3.00;;;;;;;;;;4991656;28;20037;-60
2022/08/23 13:14:21;;;;;;;5.57;3.10;;;;;;;;;;4990445;28;20034;-60
2022/08/23 13:16:46;;;;;;;6.15;3.08;;;;;;;;;;4990754;28;20035;-61
2022/08/23 13:19:26;;;;;;;6.25;3.20;;;;;;;;;;4989867;28;20080;-60
2022/08/23 13:22:17;;;;;;;7.20;3.00;;;;;;;;;;4992268;28;20121;-62
2022/08/23 13:24:56;;;;;;;7.50;2.75;;;;;;;;;;4990953;28;20042;-61
2022/08/23 13:27:31;;;;;;;6.53;2.95;;;;;;;;;;4990208;28;20426;-63
2022/08/23 13:30:02;;;;;;;5.80;2.42;;;;;;;;;;4987612;28;20042;-60
2022/08/23 13:32:42;;;;;;;6.43;2.78;;;;;;;;;;4992185;28;20039;-61
2022/08/23 13:35:45;;;;;;;6.45;2.60;;;;;;;;;;4989993;28;20038;-60
2022/08/23 13:38:13;;;;;;;7.63;2.28;;;;;;;;;;4988880;28;20121;-60
2022/08/23 13:40:53;;;;;;;4.32;2.15;;;;;;;;;;4991419;28;20041;-62
2022/08/23 13:43:41;;;;;;;5.70;2.45;;;;;;;;;;4990219;28;20037;-60
2022/08/23 13:46:13;;;;;;;7.97;2.60;;;;;;;;;;4981572;28;20042;-60
2022/08/23 13:48:50;;;;;;;4.50;2.45;;;;;;;;;;4989423;28;20031;-60
2022/08/23 13:51:27;;;;;;;4.28;2.50;;;;;;;;;;4989535;28;20105;-60
2022/08/23 13:53:54;;;;;;;5.88;2.72;;;;;;;;;;4990869;28;20475;-63
2022/08/23 13:56:20;;;;;;;6.13;2.30;;;;;;;;;;4991103;28;20061;-61
2022/08/23 13:58:56;;;;;;;4.65;2.50;;;;;;;;;;4991403;28;20042;-60
2022/08/23 14:01:22;;;;;;;6.05;2.20;;;;;;;;;;4990499;28;20038;-60
2022/08/23 14:03:47;;;;;;;5.10;2.30;;;;;;;;;;4985090;28;20041;-60
2022/08/23 14:06:13;;;;;;;5.50;2.33;;;;;;;;;;4990497;28;20038;-61
2022/08/23 14:08:38;;;;;;;4.88;2.20;;;;;;;;;;4983855;28;20054;-60
2022/08/23 14:11:04;;;;;;;5.13;2.42;;;;;;;;;;4984628;28;20088;-60
2022/08/23 14:13:31;;;;;;;6.32;2.50;;;;;;;;;;4990752;28;20038;-60
2022/08/23 14:16:03;;;;;;;5.72;2.30;;;;;;;;;;4989985;28;20042;-59
2022/08/23 14:18:28;;;;;;;5.10;2.38;;;;;;;;;;4985103;28;20038;-60
2022/08/23 14:20:55;;;;;;;4.82;2.40;;;;;;;;;;4989416;28;20085;-61
2022/08/23 14:23:20;;;;;;;8.13;2.78;;;;;;;;;;4988951;28;20475;-59
2022/08/23 14:25:50;;;;;;;7.07;2.60;;;;;;;;;;4992065;28;20119;-60
2022/08/23 14:28:15;;;;;;;4.17;2.40;;;;;;;;;;4989005;28;20577;-59
2022/08/23 14:30:41;;;;;;;5.55;2.70;;;;;;;;;;4989655;28;20327;-61
2022/08/23 14:33:06;;;;;;;7.30;2.40;;;;;;;;;;4991201;28;20459;-62
2022/08/23 14:35:32;;;;;;;7.07;2.67;;;;;;;;;;4987496;28;20083;-63
2022/08/23 14:37:57;;;;;;;5.80;2.75;;;;;;;;;;4994946;28;20023;-62
2022/08/23 14:40:23;;;;;;;6.30;2.50;;;;;;;;;;4993608;28;20398;-61
2022/08/23 14:42:48;;;;;;;5.97;2.78;;;;;;;;;;4990487;28;20084;-61
2022/08/23 14:45:16;;;;;;;6.25;2.63;;;;;;;;;;4988233;28;20035;-61
2022/08/23 14:47:42;;;;;;;5.88;2.80;;;;;;;;;;4976188;28;20043;-60
2022/08/23 14:50:10;;;;;;;11.75;2.80;;;;;;;;;;4986053;28;20390;-60
2022/08/23 14:52:44;;;;;;;5.43;2.72;;;;;;;;;;4987199;28;20026;-60
2022/08/23 14:55:10;;;;;;;8.60;2.80;;;;;;;;;;4988555;28;20042;-60
2022/08/23 14:57:35;;;;;;;7.20;2.72;;;;;;;;;;4993540;28;20051;-60
2022/08/23 15:00:02;;;;;;;5.30;2.70;;;;;;;;;;4988808;28;20456;-60
2022/08/23 15:02:28;;;;;;;7.78;2.70;;;;;;;;;;4986935;28;20129;-60
2022/08/23 15:04:54;;;;;;;5.28;2.63;;;;;;;;;;4992447;28;20121;-62
2022/08/23 15:07:20;;;;;;;6.78;2.70;;;;;;;;;;4992432;28;20475;-59
2022/08/23 15:09:47;;;;;;;8.77;2.88;;;;;;;;;;4994469;28;20034;-61
2022/08/23 15:12:13;;;;;;;4.82;2.88;;;;;;;;;;4991902;28;20602;-60
2022/08/23 15:14:38;;;;;;;7.80;3.00;;;;;;;;;;4992638;28;20105;-60